CST,Max TemperatureF,Mean TemperatureF,Min TemperatureF,Max Dew PointF,MeanDew PointF,Min DewpointF,Max Humidity, Mean Humidity, Min Humidity, Max Sea Level PressureIn, Mean Sea Level PressureIn, Min Sea Level PressureIn, Max VisibilityMiles, Mean VisibilityMiles, Min VisibilityMiles, Max Wind SpeedMPH, Mean Wind SpeedMPH, Max Gust SpeedMPH,PrecipitationIn, CloudCover, Events, WindDirDegrees
2013-1-1,21,12,4,9,5,-1,84,70,51,30.38,30.30,30.19,10,10,10,7,4,,0.00,0,,125
2013-1-2,34,20,5,29,20,3,91,81,74,30.26,30.15,30.07,10,10,10,13,4,,0.00,6,Snow,268
2013-1-3,30,21,10,27,18,7,94,78,66,30.46,30.38,30.25,10,10,10,18,9,26,0.00,5,,314
2013-1-4,36,22,7,23,14,5,94,79,52,30.36,30.28,30.19,10,10,10,9,3,,0.00,0,,177
2013-1-5,35,23,11,28,19,11,100,84,64,30.25,30.12,30.03,10,10,10,23,6,31,0.00,3,,251
2013-1-6,36,24,13,25,18,11,87,75,58,30.38,30.29,30.18,10,10,10,15,8,,0.00,1,,210
2013-1-7,41,30,19,29,23,19,100,83,59,30.16,30.05,29.94,10,9,0,13,5,,0.00,0,Fog,184
2013-1-8,43,30,16,32,26,16,100,83,61,30.15,29.98,29.87,10,10,10,13,4,,0.00,0,,219
2013-1-9,44,32,21,32,28,21,99,87,59,30.46,30.36,30.19,10,10,10,7,1,,0.00,0,,221
2013-1-10,40,33,26,39,35,25,100,92,56,30.35,29.91,29.72,10,6,0,13,6,,0.07,7,Fog-Rain,122
2013-1-11,53,42,29,50,39,22,100,97,73,29.75,29.59,29.40,10,5,0,26,8,36,0.00,5,Fog,148
2013-1-12,28,20,12,19,9,3,69,61,50,30.19,30.07,29.77,10,10,10,30,18,36,0.00,3,,298
2013-1-13,22,14,7,6,3,1,79,66,41,30.40,30.27,30.18,10,10,10,16,11,20,0.00,2,Snow,310
2013-1-14,29,16,4,13,8,1,89,71,40,30.53,30.45,30.40,10,10,10,8,3,,0.00,0,,208
2013-1-15,36,23,10,17,13,8,92,67,38,30.40,30.28,30.09,10,10,10,10,5,,0.00,1,,192
2013-1-16,51,36,20,32,25,16,86,68,48,30.25,30.03,29.96,10,10,10,16,7,,0.00,2,,264
2013-1-17,35,28,20,32,27,20,100,94,72,30.50,30.41,30.27,10,8,0,8,4,,0.00,2,Fog,267
2013-1-18,54,38,22,32,29,22,100,78,41,30.31,30.06,29.91,10,10,7,14,5,22,0.00,0,,187
2013-1-19,54,38,22,32,26,11,99,68,36,30.37,30.05,29.88,10,10,10,22,7,29,0.00,0,,319
2013-1-20,20,16,11,12,8,3,84,68,47,30.48,30.43,30.36,10,10,10,12,7,,0.00,4,Snow,348
2013-1-21,16,11,6,9,-2,-10,74,54,40,30.53,30.47,30.42,10,10,10,18,9,23,0.00,6,Snow,316
2013-1-22,20,14,9,11,6,-2,87,78,53,30.46,30.41,30.32,10,10,6,8,2,,0.03,6,Snow,77
2013-1-23,30,18,7,17,9,0,88,70,54,30.57,30.35,30.23,10,10,10,16,7,23,0.00,0,Snow,7
2013-1-24,20,11,2,7,0,-6,69,56,47,30.62,30.43,30.25,10,10,10,14,10,20,0.00,5,,106
2013-1-25,47,29,11,25,17,6,89,65,41,30.28,30.21,30.17,10,10,10,14,5,,0.00,0,,302
2013-1-26,46,31,16,25,19,9,88,64,41,30.31,30.20,30.04,10,10,10,16,9,,0.00,1,,108
2013-1-27,42,38,33,43,38,23,100,97,52,30.01,29.83,29.71,10,5,0,15,10,18,0.22,7,Fog-Rain,119
2013-1-28,46,40,33,47,39,34,100,100,100,29.90,29.78,29.57,4,1,0,9,5,,0.01,7,Fog,86
2013-1-29,41,36,32,41,35,32,100,99,93,29.71,29.65,29.56,10,9,0,18,10,25,0.00,7,Fog-Rain-Snow,329
2013-1-30,32,23,14,32,20,8,100,83,63,29.99,29.80,29.66,10,8,1,26,19,37,0.00,6,Snow,323
2013-1-31,15,8,0,7,-2,-9,76,63,54,30.51,30.26,30.00,10,10,10,25,14,33,0.00,1,Snow,314